X  Затвори Metar data     LBPD Plovdiv International Airport
Температура
45°F Температура
45°F Точка на орос.
100% Влажност



Вятър
5 MPT
8 КМ/Ч
2 М/С
4 KNOB



140°
Nuværende forhold

Tåge Tåge
Налягане 1011.85 (hPa) - 29.88 (inHg)
Sigt 2.3 (mil) - 3.7 (км)
Lufthavn
Lufthavnskode LBPD

Lokation: Plovdiv International Airport
Afstand: 14 (mi)

Metar:
LBPD 020400Z AUTO 14004KT 3700 BR OVC003/// 07/07 Q1012 NOSIG

Tid: 02-03-2024 06:00 EET